Time;durP1;ratioP1;P1;durP2;ratioP2;P2;SDS_P1;SDS_P2;PMS_P1;PMS_P2;Temp;Humidity;BMP_temperature;BMP_pressure;BME280_temperature;BME280_humidity;BME280_pressure;Samples;Min_cycle;Max_cycle;Signal;HPM_P1;HPM_P2
2024/03/01 00:02:10;;;;;;;2.13;1.53;;;17.40;56.50;;;;;;5093368;28;20526;-81
2024/03/01 00:04:36;;;;;;;1.60;1.30;;;17.40;56.50;;;;;;5093370;28;20926;-90
2024/03/01 00:07:04;;;;;;;2.00;1.40;;;17.40;56.50;;;;;;5093141;28;20453;-80
2024/03/01 00:09:31;;;;;;;2.03;1.40;;;17.40;56.50;;;;;;5093215;28;20965;-80
2024/03/01 00:11:57;;;;;;;1.80;1.30;;;17.40;56.50;;;;;;5093473;28;20442;-88
2024/03/01 00:14:24;;;;;;;2.50;1.50;;;17.40;56.50;;;;;;5093069;28;20440;-79
2024/03/01 00:16:52;;;;;;;2.20;1.30;;;17.40;56.50;;;;;;5093140;28;20589;-80
2024/03/01 00:19:19;;;;;;;1.90;1.50;;;17.40;56.50;;;;;;5093259;28;20478;-80
2024/03/01 00:21:46;;;;;;;2.00;1.57;;;17.40;56.50;;;;;;5097156;28;20438;-80
2024/03/01 00:24:13;;;;;;;2.13;1.67;;;17.50;56.60;;;;;;5097352;28;20432;-80
2024/03/01 00:26:44;;;;;;;1.77;1.33;;;17.40;56.50;;;;;;5097114;28;20538;-85
2024/03/01 00:29:11;;;;;;;2.23;1.83;;;17.40;57.10;;;;;;5096857;28;20574;-80
2024/03/01 00:31:38;;;;;;;2.67;1.63;;;17.50;56.60;;;;;;5096774;28;20475;-79
2024/03/01 00:34:06;;;;;;;2.00;1.53;;;17.40;56.50;;;;;;5096987;28;20435;-80
2024/03/01 00:36:33;;;;;;;2.00;1.50;;;17.40;56.50;;;;;;5096882;28;20436;-80
2024/03/01 00:39:00;;;;;;;2.10;1.40;;;17.50;56.60;;;;;;5096800;28;20526;-86
2024/03/01 00:41:27;;;;;;;1.87;1.27;;;17.40;56.50;;;;;;5096995;28;20514;-90
2024/03/01 00:43:55;;;;;;;2.43;1.60;;;17.40;56.50;;;;;;5096993;28;20435;-84
2024/03/01 00:46:22;;;;;;;2.63;1.90;;;17.40;56.50;;;;;;5096777;28;20449;-81
2024/03/01 00:48:49;;;;;;;2.00;1.40;;;17.40;56.50;;;;;;5096611;28;20478;-81
2024/03/01 00:51:17;;;;;;;1.80;1.50;;;17.40;56.50;;;;;;5099713;28;20477;-79
2024/03/01 00:53:44;;;;;;;1.67;1.23;;;17.40;56.50;;;;;;5100369;28;20439;-80
2024/03/01 00:56:12;;;;;;;1.93;1.40;;;17.40;56.50;;;;;;5098889;28;20882;-80
2024/03/01 00:58:39;;;;;;;2.17;1.37;;;17.50;56.60;;;;;;5096526;28;20466;-80
2024/03/01 01:01:06;;;;;;;1.87;1.40;;;17.40;56.50;;;;;;5096250;28;20535;-80
2024/03/01 01:03:33;;;;;;;1.97;1.40;;;17.40;56.50;;;;;;5096811;28;20431;-90
2024/03/01 01:06:00;;;;;;;1.80;1.47;;;17.40;56.50;;;;;;5096583;28;20547;-80
2024/03/01 01:08:28;;;;;;;2.17;1.23;;;17.40;56.50;;;;;;5096299;28;20483;-88
2024/03/01 01:10:55;;;;;;;2.03;1.30;;;17.40;56.50;;;;;;5096677;28;20450;-81
2024/03/01 01:13:22;;;;;;;1.90;1.40;;;17.40;56.50;;;;;;5096073;28;20439;-81
2024/03/01 01:15:49;;;;;;;2.13;1.63;;;17.40;56.50;;;;;;5095998;28;20460;-80
2024/03/01 01:18:16;;;;;;;2.30;1.73;;;17.40;56.50;;;;;;5096310;28;20466;-81
2024/03/01 01:20:44;;;;;;;2.57;1.73;;;17.40;56.50;;;;;;5096524;28;20944;-81
2024/03/01 01:23:11;;;;;;;2.03;1.40;;;17.40;56.50;;;;;;5096159;28;20526;-89
2024/03/01 01:25:41;;;;;;;2.00;1.47;;;17.40;56.50;;;;;;5096027;28;20439;-80
2024/03/01 01:28:08;;;;;;;2.10;1.70;;;17.40;56.50;;;;;;5095904;28;20513;-82
2024/03/01 01:30:37;;;;;;;1.90;1.40;;;17.40;56.50;;;;;;5095775;28;20876;-89
2024/03/01 01:33:04;;;;;;;2.10;1.80;;;17.40;56.50;;;;;;5095457;28;20439;-80
2024/03/01 01:35:31;;;;;;;1.80;1.37;;;17.40;56.50;;;;;;5095934;28;20435;-80
2024/03/01 01:37:59;;;;;;;1.90;1.33;;;17.40;56.50;;;;;;5095797;28;20484;-80
2024/03/01 01:40:30;;;;;;;1.70;1.20;;;17.40;56.50;;;;;;5095759;28;20464;-79
2024/03/01 01:42:58;;;;;;;2.10;1.80;;;17.40;56.50;;;;;;5095727;28;20453;-80
2024/03/01 01:45:25;;;;;;;2.10;1.70;;;17.40;56.50;;;;;;5095706;28;20515;-80
2024/03/01 01:47:53;;;;;;;6.07;1.90;;;17.30;56.40;;;;;;5095326;28;20506;-80
2024/03/01 01:50:21;;;;;;;1.90;1.30;;;17.40;56.50;;;;;;5095513;28;20859;-85
2024/03/01 01:52:48;;;;;;;2.80;2.00;;;17.40;56.50;;;;;;5095570;28;20435;-80
2024/03/01 01:55:15;;;;;;;2.40;1.53;;;17.40;56.50;;;;;;5095356;28;20545;-80
2024/03/01 01:57:44;;;;;;;2.33;1.60;;;17.40;56.50;;;;;;5095583;28;20534;-79
2024/03/01 02:00:14;;;;;;;2.53;1.80;;;17.40;56.50;;;;;;5095636;28;20479;-80
2024/03/01 02:02:42;;;;;;;2.50;1.67;;;17.40;56.50;;;;;;5095441;28;20527;-84
2024/03/01 02:05:09;;;;;;;1.70;1.27;;;17.40;56.50;;;;;;5095470;28;20463;-86
2024/03/01 02:07:37;;;;;;;1.90;1.60;;;17.40;56.50;;;;;;5095321;28;20451;-80
2024/03/01 02:10:16;;;;;;;2.03;1.50;;;17.40;56.50;;;;;;5095228;28;20446;-80
2024/03/01 02:12:53;;;;;;;2.30;1.93;;;17.30;56.40;;;;;;5094825;28;20453;-81
2024/03/01 02:15:21;;;;;;;2.67;2.00;;;17.40;56.50;;;;;;5094848;28;20431;-80
2024/03/01 02:17:48;;;;;;;2.30;1.83;;;17.30;56.40;;;;;;5095276;28;20432;-82
2024/03/01 02:20:16;;;;;;;2.30;1.83;;;17.30;56.40;;;;;;5094769;28;20432;-81
2024/03/01 02:22:50;;;;;;;1.87;1.57;;;17.30;56.40;;;;;;5094944;28;20478;-81
2024/03/01 02:25:19;;;;;;;2.00;1.60;;;17.30;56.40;;;;;;5094941;28;20438;-89
2024/03/01 02:27:47;;;;;;;2.17;1.77;;;17.30;56.40;;;;;;5094665;28;20455;-81
2024/03/01 02:30:14;;;;;;;2.40;1.83;;;17.30;56.40;;;;;;5094632;28;20977;-81
2024/03/01 02:32:41;;;;;;;2.20;1.57;;;17.30;56.40;;;;;;5094392;28;20466;-91
2024/03/01 02:35:08;;;;;;;2.50;1.70;;;17.30;56.40;;;;;;5094688;28;21001;-80
2024/03/01 02:37:35;;;;;;;1.97;1.53;;;17.30;56.40;;;;;;5094458;28;20518;-80
2024/03/01 02:40:04;;;;;;;3.03;1.70;;;17.30;56.40;;;;;;5094482;28;20475;-80
2024/03/01 02:42:33;;;;;;;2.90;1.73;;;17.30;56.40;;;;;;5094652;28;20966;-89
2024/03/01 02:44:59;;;;;;;1.90;1.43;;;17.40;56.50;;;;;;5093751;28;20522;-80
2024/03/01 02:47:26;;;;;;;2.93;1.80;;;17.30;56.50;;;;;;5094631;28;20436;-81
2024/03/01 02:49:53;;;;;;;2.43;1.70;;;17.30;56.40;;;;;;5094440;28;20558;-81
2024/03/01 02:52:20;;;;;;;2.00;1.57;;;17.30;56.40;;;;;;5094432;28;20435;-80
2024/03/01 02:54:48;;;;;;;1.97;1.40;;;17.30;56.40;;;;;;5094636;28;20431;-86
2024/03/01 02:57:14;;;;;;;2.50;1.87;;;17.40;56.50;;;;;;5094287;28;20452;-80
2024/03/01 02:59:43;;;;;;;2.10;1.80;;;17.30;56.40;;;;;;5094492;28;20530;-89
2024/03/01 03:02:09;;;;;;;2.20;1.67;;;17.30;56.40;;;;;;5094569;28;20522;-80
2024/03/01 03:04:36;;;;;;;2.73;1.70;;;17.30;56.40;;;;;;5094987;28;20875;-90
2024/03/01 03:07:03;;;;;;;2.00;1.57;;;17.30;56.40;;;;;;5094504;28;20434;-90
2024/03/01 03:09:30;;;;;;;2.43;1.77;;;17.30;56.40;;;;;;5094497;28;20483;-80
2024/03/01 03:11:57;;;;;;;1.87;1.60;;;17.30;56.40;;;;;;5094037;28;20532;-80
2024/03/01 03:14:24;;;;;;;2.43;1.67;;;17.30;56.40;;;;;;5098115;28;20439;-80
2024/03/01 03:16:52;;;;;;;2.30;1.60;;;17.30;57.00;;;;;;5100600;28;20538;-80
2024/03/01 03:19:19;;;;;;;1.63;1.30;;;17.30;56.40;;;;;;5099347;28;20440;-81
2024/03/01 03:21:46;;;;;;;2.10;1.70;;;17.30;56.40;;;;;;5098299;28;20435;-80
2024/03/01 03:24:13;;;;;;;2.50;2.23;;;17.40;56.60;;;;;;5093721;28;20475;-80
2024/03/01 03:26:39;;;;;;;2.67;2.23;;;17.30;56.50;;;;;;5094055;28;20890;-81
2024/03/01 03:29:06;;;;;;;2.17;1.60;;;17.30;56.40;;;;;;5093995;28;20582;-79
2024/03/01 03:31:33;;;;;;;2.00;1.43;;;17.30;57.00;;;;;;5093257;28;20467;-80
2024/03/01 03:34:02;;;;;;;3.20;1.80;;;17.30;56.50;;;;;;5093737;28;20442;-86
2024/03/01 03:36:29;;;;;;;2.13;1.60;;;17.30;56.50;;;;;;5093568;28;20444;-79
2024/03/01 03:38:56;;;;;;;1.90;1.70;;;17.30;56.40;;;;;;5093577;28;20431;-85
2024/03/01 03:41:23;;;;;;;2.40;1.57;;;17.30;56.40;;;;;;5101544;28;20504;-79
2024/03/01 03:43:50;;;;;;;2.80;2.23;;;17.30;56.50;;;;;;5099064;28;20530;-79
2024/03/01 03:46:16;;;;;;;2.60;1.90;;;17.30;56.40;;;;;;5093639;28;20435;-86
2024/03/01 03:48:43;;;;;;;2.10;1.60;;;17.30;56.40;;;;;;5093626;28;20561;-80
2024/03/01 03:51:11;;;;;;;2.17;1.90;;;17.30;56.40;;;;;;5093513;28;20461;-78
2024/03/01 03:53:38;;;;;;;2.10;1.60;;;17.30;56.50;;;;;;5093328;28;20873;-80
2024/03/01 03:56:06;;;;;;;2.53;1.70;;;17.30;56.50;;;;;;5098921;28;20431;-79
2024/03/01 03:58:33;;;;;;;1.90;1.60;;;17.30;56.40;;;;;;5099995;28;20957;-89
2024/03/01 04:00:59;;;;;;;2.90;1.77;;;17.20;56.40;;;;;;5100689;28;20431;-80
2024/03/01 04:03:26;;;;;;;2.20;1.50;;;17.30;56.50;;;;;;5100322;28;20435;-81
2024/03/01 04:05:53;;;;;;;2.67;1.83;;;17.20;56.40;;;;;;5100581;28;20433;-80
2024/03/01 04:08:23;;;;;;;2.40;1.60;;;17.30;56.50;;;;;;5100144;28;20533;-90
2024/03/01 04:10:49;;;;;;;2.60;1.80;;;17.20;56.40;;;;;;5100195;28;20938;-81
2024/03/01 04:13:16;;;;;;;2.47;1.70;;;17.30;56.50;;;;;;5099918;28;20432;-81
2024/03/01 04:15:43;;;;;;;2.60;1.73;;;17.20;56.40;;;;;;5100153;28;20457;-80
2024/03/01 04:18:10;;;;;;;2.00;1.50;;;17.30;56.50;;;;;;5099951;28;20438;-81
2024/03/01 04:20:37;;;;;;;2.47;1.70;;;17.20;56.40;;;;;;5099962;28;20437;-80
2024/03/01 04:23:05;;;;;;;2.30;1.80;;;17.30;56.50;;;;;;5099966;28;20446;-81
2024/03/01 04:25:34;;;;;;;2.03;1.80;;;17.20;56.40;;;;;;5099699;28;20443;-80
2024/03/01 04:28:01;;;;;;;2.17;1.60;;;17.30;56.50;;;;;;5099945;28;20550;-80
2024/03/01 04:30:28;;;;;;;4.10;2.17;;;17.20;56.40;;;;;;5099448;28;20501;-88
2024/03/01 04:32:55;;;;;;;2.60;2.23;;;17.20;56.40;;;;;;5099729;28;20439;-81
2024/03/01 04:35:22;;;;;;;2.33;1.70;;;17.20;56.40;;;;;;5099927;28;20442;-81
2024/03/01 04:37:49;;;;;;;2.70;2.00;;;17.30;56.50;;;;;;5099792;28;20801;-80
2024/03/01 04:40:15;;;;;;;2.50;1.87;;;17.20;56.40;;;;;;5099717;28;20803;-80
2024/03/01 04:42:44;;;;;;;2.10;1.90;;;17.20;56.40;;;;;;5099533;28;20439;-80
2024/03/01 04:45:10;;;;;;;2.10;1.67;;;17.20;56.40;;;;;;5099761;28;20435;-80
2024/03/01 04:47:37;;;;;;;2.70;2.17;;;17.20;56.40;;;;;;5099571;28;20526;-80
2024/03/01 04:50:06;;;;;;;2.10;1.60;;;17.20;56.40;;;;;;5099331;28;20501;-80
2024/03/01 04:52:33;;;;;;;2.57;2.00;;;17.20;56.40;;;;;;5099623;28;20443;-80
2024/03/01 04:54:59;;;;;;;2.20;1.77;;;17.20;56.40;;;;;;5099429;28;20523;-90
2024/03/01 04:57:27;;;;;;;2.57;2.00;;;17.20;56.40;;;;;;5099383;28;21048;-88
2024/03/01 04:59:55;;;;;;;2.00;1.60;;;17.20;56.40;;;;;;5099565;28;20800;-81
2024/03/01 05:02:22;;;;;;;2.57;2.00;;;17.20;56.50;;;;;;5099410;28;20447;-84
2024/03/01 05:04:49;;;;;;;2.27;1.83;;;17.20;56.50;;;;;;5099523;28;20801;-79
2024/03/01 05:07:17;;;;;;;2.53;1.93;;;17.20;56.50;;;;;;5096168;28;20446;-80
2024/03/01 05:09:44;;;;;;;2.30;1.90;;;17.20;56.50;;;;;;5096350;28;20486;-81
2024/03/01 05:12:13;;;;;;;2.13;1.70;;;17.20;56.40;;;;;;5096122;28;20442;-80
2024/03/01 05:14:40;;;;;;;1.90;1.70;;;17.20;56.50;;;;;;5096060;28;20922;-81
2024/03/01 05:17:09;;;;;;;2.27;2.00;;;17.20;56.50;;;;;;5095879;28;20802;-85
2024/03/01 05:19:38;;;;;;;2.43;1.93;;;17.20;56.50;;;;;;5095664;28;20514;-80
2024/03/01 05:22:05;;;;;;;1.83;1.37;;;17.20;56.50;;;;;;5096369;28;20447;-80
2024/03/01 05:24:32;;;;;;;2.83;1.60;;;17.20;56.50;;;;;;5096003;28;20451;-81
2024/03/01 05:26:59;;;;;;;2.30;2.03;;;17.20;56.50;;;;;;5096133;28;20456;-81
2024/03/01 05:29:26;;;;;;;2.00;1.70;;;17.20;56.50;;;;;;5096007;28;20475;-90
2024/03/01 05:31:53;;;;;;;2.07;1.53;;;17.20;56.50;;;;;;5095467;28;20473;-80
2024/03/01 05:34:21;;;;;;;1.87;1.60;;;17.20;56.50;;;;;;5095705;28;20448;-80
2024/03/01 05:36:48;;;;;;;2.43;1.80;;;17.20;56.50;;;;;;5095523;28;20526;-80
2024/03/01 05:39:18;;;;;;;2.13;1.70;;;17.20;56.50;;;;;;5094675;28;20546;-80
2024/03/01 05:41:46;;;;;;;2.83;2.43;;;17.20;56.50;;;;;;5095491;28;20989;-80
2024/03/01 05:44:13;;;;;;;2.23;1.60;;;17.20;56.60;;;;;;5095583;28;21014;-80
2024/03/01 05:46:41;;;;;;;1.80;1.60;;;17.20;56.50;;;;;;5095577;28;20435;-81
2024/03/01 05:49:09;;;;;;;2.00;1.50;;;17.20;56.50;;;;;;5095536;28;20527;-80
2024/03/01 05:51:37;;;;;;;2.30;1.70;;;17.20;56.50;;;;;;5095397;28;20435;-80
2024/03/01 05:54:05;;;;;;;2.90;2.17;;;17.20;56.50;;;;;;5095973;28;20436;-80
2024/03/01 05:56:32;;;;;;;2.10;1.70;;;17.20;56.50;;;;;;5095630;28;20455;-80
2024/03/01 05:58:59;;;;;;;2.60;1.90;;;17.20;56.50;;;;;;5095543;28;20443;-90
2024/03/01 06:01:27;;;;;;;2.13;1.60;;;17.20;56.50;;;;;;5095559;28;20435;-81
2024/03/01 06:03:53;;;;;;;2.30;1.83;;;17.20;56.50;;;;;;5095311;28;20432;-80
2024/03/01 06:06:20;;;;;;;1.70;1.40;;;17.20;56.50;;;;;;5095591;28;20435;-80
2024/03/01 06:08:49;;;;;;;4.80;2.13;;;17.20;56.50;;;;;;5095108;28;20518;-80
2024/03/01 06:11:16;;;;;;;2.40;1.73;;;17.20;56.60;;;;;;5095043;28;20479;-83
2024/03/01 06:13:44;;;;;;;2.63;1.63;;;17.20;56.60;;;;;;5095334;28;20440;-80
2024/03/01 06:16:10;;;;;;;2.00;1.80;;;17.10;56.50;;;;;;5095152;28;20833;-80
2024/03/01 06:18:37;;;;;;;2.33;2.10;;;17.10;56.50;;;;;;5095027;28;20454;-80
2024/03/01 06:21:05;;;;;;;2.30;1.63;;;17.10;56.50;;;;;;5095032;28;20496;-81
2024/03/01 06:23:33;;;;;;;1.87;1.53;;;17.10;56.50;;;;;;5094833;28;20511;-81
2024/03/01 06:26:01;;;;;;;2.33;1.70;;;17.10;56.50;;;;;;5094963;28;20915;-81
2024/03/01 06:28:28;;;;;;;2.73;1.97;;;17.20;56.60;;;;;;5096850;28;20455;-80
2024/03/01 06:30:55;;;;;;;2.77;2.10;;;17.10;56.50;;;;;;5099326;28;20491;-80
2024/03/01 06:33:21;;;;;;;3.17;1.70;;;17.10;56.50;;;;;;5098323;28;20486;-90
2024/03/01 06:35:48;;;;;;;2.30;1.77;;;17.30;56.70;;;;;;5094811;28;20518;-85
2024/03/01 06:38:15;;;;;;;1.90;1.60;;;17.20;56.60;;;;;;5094635;28;20459;-89
2024/03/01 06:40:42;;;;;;;1.93;1.70;;;17.10;56.50;;;;;;5094663;28;20436;-81
2024/03/01 06:43:10;;;;;;;2.10;1.70;;;17.10;56.50;;;;;;5095002;28;20438;-90
2024/03/01 06:45:37;;;;;;;1.90;1.47;;;17.10;56.50;;;;;;5094895;28;20466;-81
2024/03/01 06:48:04;;;;;;;1.97;1.57;;;17.20;56.60;;;;;;5094798;28;20820;-84
2024/03/01 06:50:31;;;;;;;1.97;1.60;;;17.10;56.50;;;;;;5094449;28;20566;-81
2024/03/01 06:52:58;;;;;;;1.87;1.40;;;17.10;56.60;;;;;;5094484;28;20511;-90
2024/03/01 06:55:25;;;;;;;2.10;1.90;;;17.10;56.60;;;;;;5094835;28;20536;-81
2024/03/01 06:57:52;;;;;;;2.30;1.80;;;17.10;56.60;;;;;;5094650;28;20810;-89
2024/03/01 07:00:20;;;;;;;2.27;2.00;;;17.10;56.60;;;;;;5094576;28;20533;-85
2024/03/01 07:02:47;;;;;;;2.00;1.50;;;17.10;56.60;;;;;;5094360;28;20508;-88
2024/03/01 07:05:14;;;;;;;2.30;1.70;;;17.10;56.60;;;;;;5094575;28;20438;-81
2024/03/01 07:07:40;;;;;;;2.30;1.60;;;17.20;56.70;;;;;;5094522;28;20940;-89
2024/03/01 07:10:08;;;;;;;2.20;1.43;;;17.10;56.60;;;;;;5094403;28;20474;-80
2024/03/01 07:12:36;;;;;;;2.53;1.83;;;17.10;56.60;;;;;;5094418;28;20428;-87
2024/03/01 07:15:03;;;;;;;1.80;1.53;;;17.10;56.60;;;;;;5094434;28;20439;-81
2024/03/01 07:17:31;;;;;;;2.13;1.77;;;17.10;56.60;;;;;;5094569;28;21048;-80
2024/03/01 07:19:57;;;;;;;2.20;1.80;;;17.10;56.60;;;;;;5094254;28;20438;-81
2024/03/01 07:22:24;;;;;;;2.70;2.00;;;17.10;56.60;;;;;;5094152;28;20956;-81
2024/03/01 07:24:51;;;;;;;2.50;1.73;;;17.10;57.20;;;;;;5094351;28;20523;-80
2024/03/01 07:27:18;;;;;;;2.93;2.00;;;17.10;56.60;;;;;;5093993;28;20458;-83
2024/03/01 07:29:45;;;;;;;1.83;1.43;;;17.10;56.70;;;;;;5093209;28;20484;-86
2024/03/01 07:32:11;;;;;;;1.90;1.40;;;17.10;56.60;;;;;;5094192;28;20526;-80
2024/03/01 07:34:40;;;;;;;1.97;1.60;;;17.10;56.60;;;;;;5093851;28;20935;-80
2024/03/01 07:37:07;;;;;;;2.20;1.60;;;17.10;56.70;;;;;;5093943;28;20431;-80
2024/03/01 07:39:33;;;;;;;2.33;1.83;;;17.10;56.70;;;;;;5093587;28;20446;-89
2024/03/01 07:42:00;;;;;;;2.20;1.77;;;17.20;56.80;;;;;;5093759;28;20952;-80
2024/03/01 07:44:27;;;;;;;2.07;1.50;;;17.10;56.70;;;;;;5093861;28;20466;-80
2024/03/01 07:46:57;;;;;;;2.10;1.60;;;17.10;56.70;;;;;;5094453;28;20424;-80
2024/03/01 07:49:24;;;;;;;2.23;1.47;;;17.10;56.70;;;;;;5093871;28;20451;-80
2024/03/01 07:51:53;;;;;;;1.90;1.70;;;17.10;56.70;;;;;;5093982;28;20483;-80
2024/03/01 07:54:20;;;;;;;2.47;1.40;;;17.10;56.70;;;;;;5093842;28;20439;-80
2024/03/01 07:56:47;;;;;;;1.90;1.40;;;17.10;57.30;;;;;;5093309;28;20571;-88
2024/03/01 07:59:14;;;;;;;2.17;1.60;;;17.10;56.70;;;;;;5093575;28;20523;-88
2024/03/01 08:01:41;;;;;;;2.40;1.90;;;17.10;56.70;;;;;;5093273;28;21006;-88
2024/03/01 08:04:08;;;;;;;2.37;1.70;;;17.10;56.80;;;;;;5093351;28;20522;-80
2024/03/01 08:06:35;;;;;;;2.27;1.73;;;17.10;56.80;;;;;;5093460;28;20469;-80
2024/03/01 08:09:03;;;;;;;2.00;1.40;;;17.20;56.90;;;;;;5093203;28;20443;-83
2024/03/01 08:11:42;;;;;;;2.00;1.60;;;17.10;56.80;;;;;;5093224;28;20483;-80
2024/03/01 08:14:20;;;;;;;2.00;1.57;;;17.10;56.80;;;;;;5093399;28;20488;-80
2024/03/01 08:16:51;;;;;;;2.00;1.50;;;17.10;56.80;;;;;;5093570;28;20522;-85
2024/03/01 08:19:18;;;;;;;1.97;1.50;;;17.10;56.80;;;;;;5093210;28;20438;-80
2024/03/01 08:21:45;;;;;;;1.70;1.30;;;17.10;57.30;;;;;;5093266;28;20526;-80
2024/03/01 08:24:22;;;;;;;2.40;1.60;;;17.10;56.80;;;;;;5093209;28;20964;-80
2024/03/01 08:26:49;;;;;;;2.33;1.57;;;17.10;56.80;;;;;;5093365;28;21020;-80
2024/03/01 08:29:17;;;;;;;2.03;1.50;;;17.10;56.80;;;;;;5092957;28;20428;-80
2024/03/01 08:31:44;;;;;;;1.77;1.33;;;17.10;56.80;;;;;;5093222;28;21016;-86
2024/03/01 08:34:17;;;;;;;1.90;1.53;;;17.10;56.80;;;;;;5093592;28;20922;-81
2024/03/01 08:36:45;;;;;;;2.00;1.20;;;17.10;56.80;;;;;;5093097;28;20443;-80
2024/03/01 08:39:16;;;;;;;2.10;1.47;;;17.10;56.80;;;;;;5093185;28;20991;-89
2024/03/01 08:41:45;;;;;;;2.00;1.50;;;17.10;56.80;;;;;;5093800;28;20443;-80
2024/03/01 08:44:46;;;;;;;1.90;1.50;;;17.10;56.70;;;;;;5096856;28;20535;-80
2024/03/01 08:47:22;;;;;;;1.83;1.27;;;17.10;56.70;;;;;;5053415;28;20530;-81
2024/03/01 08:50:34;;;;;;;1.80;1.20;;;17.10;56.80;;;;;;5097065;28;20948;-81
2024/03/01 08:53:00;;;;;;;1.70;1.10;;;17.10;56.80;;;;;;5096800;28;20431;-89
2024/03/01 08:55:52;;;;;;;2.17;1.30;;;17.10;56.80;;;;;;5096880;28;20435;-80
2024/03/01 08:58:26;;;;;;;1.80;1.20;;;17.10;56.80;;;;;;5096846;28;20466;-80
2024/03/01 09:00:54;;;;;;;1.70;1.50;;;17.10;56.80;;;;;;5096740;28;20431;-80
2024/03/01 09:03:24;;;;;;;1.60;1.30;;;17.10;56.80;;;;;;5096945;28;20518;-84
2024/03/01 09:05:53;;;;;;;2.13;1.23;;;17.00;56.70;;;;;;5101252;28;20431;-80
2024/03/01 09:08:24;;;;;;;2.13;1.23;;;17.10;56.80;;;;;;5104577;28;20442;-80
2024/03/01 09:10:54;;;;;;;1.90;1.47;;;17.10;56.80;;;;;;5103779;28;20475;-81
2024/03/01 09:13:22;;;;;;;2.20;1.57;;;17.10;56.80;;;;;;5100853;28;20515;-80
2024/03/01 09:15:50;;;;;;;2.00;1.60;;;17.10;56.80;;;;;;5097581;28;20475;-80
2024/03/01 09:18:40;;;;;;;1.90;1.47;;;17.10;56.80;;;;;;5101559;28;20444;-80
2024/03/01 09:21:43;;;;;;;1.97;1.47;;;17.10;56.80;;;;;;5100960;28;20486;-80
2024/03/01 09:24:16;;;;;;;1.80;1.30;;;17.10;56.80;;;;;;5096337;28;20500;-79
2024/03/01 09:26:46;;;;;;;1.67;1.33;;;17.10;56.80;;;;;;5096204;28;20535;-89
2024/03/01 09:29:35;;;;;;;1.77;1.20;;;17.10;56.80;;;;;;5096228;28;20531;-79
2024/03/01 09:32:04;;;;;;;1.90;1.40;;;17.10;56.80;;;;;;5095879;28;20501;-80
2024/03/01 09:34:35;;;;;;;1.70;1.10;;;17.10;56.90;;;;;;5095970;28;20446;-88
2024/03/01 09:37:03;;;;;;;1.87;1.30;;;17.10;56.90;;;;;;5095970;28;20432;-83
2024/03/01 09:39:30;;;;;;;1.87;1.40;;;17.10;56.80;;;;;;5095809;28;20435;-80
2024/03/01 09:42:32;;;;;;;1.80;1.43;;;17.10;56.80;;;;;;5095623;28;20463;-80
2024/03/01 09:45:22;;;;;;;1.80;1.33;;;17.10;56.80;;;;;;5048300;28;20918;-80
2024/03/01 09:48:16;;;;;;;1.80;1.50;;;17.10;56.90;;;;;;5095659;28;20878;-88
2024/03/01 09:51:04;;;;;;;1.60;1.30;;;17.10;56.90;;;;;;5095449;28;20479;-81
2024/03/01 09:53:48;;;;;;;1.63;1.10;;;17.10;56.90;;;;;;5095072;28;20860;-79
2024/03/01 09:56:23;;;;;;;2.10;1.50;;;17.10;57.40;;;;;;5095486;28;20542;-82
2024/03/01 09:59:06;;;;;;;1.87;1.33;;;17.10;56.80;;;;;;5095876;28;20986;-81
2024/03/01 10:01:37;;;;;;;1.60;1.10;;;17.10;56.80;;;;;;5095717;28;20435;-90
2024/03/01 10:04:23;;;;;;;1.70;1.27;;;17.20;56.80;;;;;;5095545;28;20432;-81
2024/03/01 10:07:02;;;;;;;1.60;1.10;;;17.20;56.70;;;;;;5095359;28;20934;-82
2024/03/01 10:09:49;;;;;;;1.70;1.40;;;17.20;56.70;;;;;;5095340;28;20440;-80
2024/03/01 10:12:28;;;;;;;1.77;1.23;;;17.20;56.70;;;;;;5094981;28;20864;-81
2024/03/01 10:15:01;;;;;;;1.77;1.27;;;17.20;56.70;;;;;;5095308;28;20946;-81
2024/03/01 10:17:39;;;;;;;2.10;1.50;;;17.20;56.80;;;;;;5095097;28;20515;-80
2024/03/01 10:20:24;;;;;;;1.70;1.27;;;17.20;56.80;;;;;;5095469;28;21000;-82
2024/03/01 10:23:09;;;;;;;2.00;1.10;;;17.20;56.80;;;;;;5095079;28;20829;-81
2024/03/01 10:25:47;;;;;;;1.80;1.20;;;17.20;56.80;;;;;;5095075;28;20468;-89
2024/03/01 10:28:28;;;;;;;1.60;1.20;;;17.20;56.80;;;;;;5095190;28;20459;-84
2024/03/01 10:31:01;;;;;;;1.50;0.93;;;17.20;56.70;;;;;;5094796;28;20491;-80
2024/03/01 10:33:45;;;;;;;1.83;1.20;;;17.20;56.70;;;;;;5094798;28;20519;-84
2024/03/01 10:36:14;;;;;;;1.53;1.07;;;17.20;56.70;;;;;;5094841;28;20443;-82
2024/03/01 10:38:54;;;;;;;1.93;1.40;;;17.20;56.70;;;;;;5094551;28;20439;-80
2024/03/01 10:41:30;;;;;;;1.70;1.13;;;17.20;56.70;;;;;;5094618;28;20439;-79
2024/03/01 10:44:09;;;;;;;1.70;1.23;;;17.20;56.70;;;;;;5094327;28;20530;-80
2024/03/01 10:46:43;;;;;;;1.50;1.10;;;17.20;56.70;;;;;;5094240;28;20522;-81
2024/03/01 10:49:13;;;;;;;1.67;1.20;;;17.30;56.90;;;;;;5094672;28;20497;-81
2024/03/01 10:51:48;;;;;;;1.67;1.30;;;17.20;56.70;;;;;;5094169;28;20491;-81
2024/03/01 10:54:18;;;;;;;2.10;1.30;;;17.20;56.80;;;;;;5094342;28;20431;-81
2024/03/01 10:56:45;;;;;;;1.40;0.97;;;17.20;56.80;;;;;;5093989;28;20451;-80
2024/03/01 10:59:18;;;;;;;1.50;1.00;;;17.20;56.80;;;;;;5093747;28;20427;-81
2024/03/01 11:01:52;;;;;;;1.90;1.23;;;17.30;56.90;;;;;;5094026;28;20440;-81
2024/03/01 11:04:28;;;;;;;1.80;1.10;;;17.30;56.80;;;;;;5093316;28;20520;-81
2024/03/01 11:07:05;;;;;;;1.77;1.03;;;17.20;56.80;;;;;;5094240;28;20440;-80
2024/03/01 11:09:40;;;;;;;2.33;1.43;;;17.20;56.90;;;;;;5094285;28;20431;-81
2024/03/01 11:12:14;;;;;;;1.70;1.20;;;17.30;57.00;;;;;;5093651;28;20493;-80
2024/03/01 11:14:49;;;;;;;1.80;1.10;;;17.30;57.00;;;;;;5093914;28;20431;-80
2024/03/01 11:17:18;;;;;;;2.20;1.17;;;17.30;57.00;;;;;;5093877;28;20930;-80
2024/03/01 11:19:50;;;;;;;1.63;1.10;;;17.30;57.00;;;;;;5093742;28;20444;-80
2024/03/01 11:22:23;;;;;;;1.63;1.10;;;17.30;56.90;;;;;;5093710;28;20468;-80
2024/03/01 11:24:58;;;;;;;1.50;0.97;;;17.30;57.50;;;;;;5093928;28;20530;-80
2024/03/01 11:27:28;;;;;;;1.90;1.30;;;17.30;56.90;;;;;;5093594;28;20541;-80
2024/03/01 11:30:04;;;;;;;1.70;1.23;;;17.30;56.90;;;;;;5093418;28;20526;-80
2024/03/01 11:32:36;;;;;;;1.90;1.20;;;17.40;57.00;;;;;;5093530;28;20892;-80
2024/03/01 11:35:11;;;;;;;1.70;1.13;;;17.40;56.90;;;;;;5093773;28;20538;-82
2024/03/01 11:37:45;;;;;;;1.70;1.40;;;17.40;57.20;;;;;;5093599;28;20538;-80
2024/03/01 11:40:19;;;;;;;1.87;1.10;;;17.40;57.20;;;;;;5093644;28;20441;-80
2024/03/01 11:43:00;;;;;;;1.70;1.20;;;17.40;57.30;;;;;;5093647;28;20446;-81
2024/03/01 11:45:35;;;;;;;1.77;1.07;;;17.50;57.30;;;;;;5093590;28;20445;-80
2024/03/01 11:48:19;;;;;;;1.57;1.10;;;17.60;57.50;;;;;;5093438;28;20492;-81
2024/03/01 11:51:00;;;;;;;1.77;1.30;;;17.60;57.40;;;;;;5093209;28;20431;-80
2024/03/01 11:53:50;;;;;;;1.50;0.90;;;17.60;57.90;;;;;;5093326;28;20526;-80
2024/03/01 11:56:41;;;;;;;1.60;1.10;;;17.70;57.50;;;;;;5093315;28;20455;-80
2024/03/01 11:59:21;;;;;;;1.70;1.17;;;17.70;57.60;;;;;;5093448;28;20431;-89
2024/03/01 12:01:55;;;;;;;1.60;1.07;;;17.80;57.70;;;;;;5093269;28;20439;-80
2024/03/01 12:04:43;;;;;;;1.60;0.90;;;17.80;57.70;;;;;;5095974;28;20529;-80
2024/03/01 12:07:32;;;;;;;1.50;0.97;;;17.90;57.70;;;;;;5095862;28;20522;-80
2024/03/01 12:10:08;;;;;;;1.50;1.00;;;17.90;57.70;;;;;;5093203;28;20438;-80
2024/03/01 12:12:42;;;;;;;1.60;1.00;;;18.00;58.40;;;;;;5093120;28;20577;-80
2024/03/01 12:15:14;;;;;;;1.70;1.00;;;18.00;57.80;;;;;;5093388;28;20439;-80
2024/03/01 12:17:50;;;;;;;1.80;1.20;;;18.00;57.70;;;;;;5096941;28;20443;-80
2024/03/01 12:20:18;;;;;;;1.80;1.10;;;18.00;57.70;;;;;;5097091;28;20439;-81
2024/03/01 12:22:51;;;;;;;1.80;1.30;;;18.00;57.80;;;;;;5097095;28;20450;-81
2024/03/01 12:25:22;;;;;;;1.70;1.10;;;18.10;57.90;;;;;;5097072;28;20518;-81
2024/03/01 12:28:13;;;;;;;1.70;1.20;;;18.10;57.90;;;;;;5097072;28;20463;-81
2024/03/01 12:30:45;;;;;;;1.83;1.20;;;18.10;57.90;;;;;;5096968;28;20479;-81
2024/03/01 12:33:27;;;;;;;1.50;1.00;;;18.20;58.00;;;;;;5096956;28;20494;-82
2024/03/01 12:36:03;;;;;;;1.40;0.80;;;18.20;58.00;;;;;;5097373;28;20442;-81
2024/03/01 12:38:31;;;;;;;1.97;1.00;;;18.30;58.00;;;;;;5097061;28;20438;-81
2024/03/01 12:41:14;;;;;;;1.70;1.00;;;18.30;57.90;;;;;;5097000;28;20783;-81
2024/03/01 12:44:05;;;;;;;1.50;0.93;;;18.30;57.90;;;;;;5097112;28;20435;-81
2024/03/01 12:46:49;;;;;;;1.60;1.00;;;18.40;58.00;;;;;;5096920;28;20436;-82
2024/03/01 12:49:29;;;;;;;2.07;1.20;;;18.40;58.00;;;;;;5097079;28;20438;-82
2024/03/01 12:52:02;;;;;;;1.60;1.00;;;18.40;58.00;;;;;;5096702;28;20577;-81
2024/03/01 12:54:37;;;;;;;1.60;1.00;;;18.40;58.00;;;;;;5096807;28;20524;-81
2024/03/01 12:57:16;;;;;;;1.90;1.07;;;18.40;58.00;;;;;;5096392;28;20530;-87
2024/03/01 12:59:50;;;;;;;1.87;1.00;;;18.40;58.00;;;;;;5096663;28;20436;-81
2024/03/01 13:02:43;;;;;;;1.60;0.90;;;18.50;58.00;;;;;;5096387;28;20439;-81
2024/03/01 13:05:24;;;;;;;1.80;1.00;;;18.50;58.00;;;;;;5089519;28;20457;-81
2024/03/01 13:07:54;;;;;;;1.50;0.90;;;18.60;58.10;;;;;;5096641;28;20449;-80